createdAt,value
2023-10-23T00:00:09.534Z,21.15
2023-10-23T00:02:39.599Z,26.40
2023-10-23T00:05:08.644Z,23.85
2023-10-23T00:07:37.137Z,25.35
2023-10-23T00:10:06.213Z,28.35
2023-10-23T00:12:35.808Z,22.50
2023-10-23T00:15:06.355Z,27.33
2023-10-23T00:17:34.925Z,18.02
2023-10-23T00:20:03.504Z,26.38
2023-10-23T00:22:31.771Z,20.92
2023-10-23T00:24:59.977Z,40.53
2023-10-23T00:27:28.894Z,27.20
2023-10-23T00:29:58.809Z,25.85
2023-10-23T00:32:27.090Z,26.48
2023-10-23T00:34:55.435Z,21.60
2023-10-23T00:37:23.754Z,27.42
2023-10-23T00:39:52.025Z,24.98
2023-10-23T00:42:20.322Z,23.27
2023-10-23T00:44:48.438Z,26.30
2023-10-23T00:47:19.696Z,29.13
2023-10-23T00:49:47.952Z,22.63
2023-10-23T00:52:16.740Z,23.67
2023-10-23T00:54:45.587Z,23.15
2023-10-23T00:57:14.181Z,20.10
2023-10-23T00:59:42.645Z,22.90
2023-10-23T01:02:12.213Z,20.23
2023-10-23T01:04:42.102Z,24.17
2023-10-23T01:07:10.416Z,21.20
2023-10-23T01:09:38.752Z,29.80
2023-10-23T01:12:08.466Z,22.30
2023-10-23T01:14:36.885Z,22.85
2023-10-23T01:17:05.665Z,18.92
2023-10-23T01:19:33.795Z,22.20
2023-10-23T01:22:04.702Z,25.33
2023-10-23T01:24:37.866Z,19.58
2023-10-23T01:27:07.703Z,17.95
2023-10-23T01:29:35.858Z,23.27
2023-10-23T01:32:04.242Z,21.83
2023-10-23T01:34:32.467Z,17.08
2023-10-23T01:37:00.589Z,15.85
2023-10-23T01:39:28.893Z,17.48
2023-10-23T01:41:57.062Z,17.65
2023-10-23T01:44:26.816Z,16.55
2023-10-23T01:46:55.142Z,18.48
2023-10-23T01:49:23.439Z,20.42
2023-10-23T01:51:51.859Z,24.02
2023-10-23T01:54:20.390Z,17.20
2023-10-23T01:56:48.631Z,17.20
2023-10-23T01:59:16.860Z,18.83
2023-10-23T02:01:46.719Z,25.08
2023-10-23T02:04:15.369Z,22.48
2023-10-23T02:06:43.737Z,20.50
2023-10-23T02:09:13.566Z,17.98
2023-10-23T02:11:41.791Z,24.23
2023-10-23T02:14:10.405Z,22.10
2023-10-23T02:16:38.637Z,20.83
2023-10-23T02:19:09.935Z,20.48
2023-10-23T02:21:38.536Z,20.10
2023-10-23T02:24:07.593Z,24.45
2023-10-23T02:26:35.701Z,21.42
2023-10-23T02:29:03.775Z,25.75
2023-10-23T02:31:31.877Z,21.55
2023-10-23T02:34:00.260Z,19.58
2023-10-23T02:36:30.435Z,23.90
2023-10-23T02:38:59.030Z,27.88
2023-10-23T02:41:27.359Z,26.42
2023-10-23T02:43:55.591Z,26.63
2023-10-23T02:46:23.882Z,20.77
2023-10-23T02:48:52.199Z,24.55
2023-10-23T02:51:20.688Z,39.75
2023-10-23T02:53:50.369Z,27.27
2023-10-23T02:56:18.609Z,26.67
2023-10-23T02:58:46.742Z,26.40
2023-10-23T03:01:20.849Z,21.45
2023-10-23T03:03:49.266Z,22.63
2023-10-23T03:06:18.333Z,22.80
2023-10-23T03:08:46.518Z,24.02
2023-10-23T03:11:16.025Z,22.55
2023-10-23T03:13:44.180Z,21.20
2023-10-23T03:16:15.714Z,24.73
2023-10-23T03:18:44.181Z,21.92
2023-10-23T03:21:12.419Z,19.88
2023-10-23T03:23:40.599Z,23.63
2023-10-23T03:26:08.839Z,21.25
2023-10-23T03:28:38.473Z,24.88
2023-10-23T03:31:06.691Z,22.20
2023-10-23T03:33:35.136Z,25.08
2023-10-23T03:36:03.256Z,23.67
2023-10-23T03:38:32.007Z,23.88
2023-10-23T03:41:01.985Z,25.35
2023-10-23T03:43:30.540Z,27.70
2023-10-23T03:46:04.840Z,21.73
2023-10-23T03:48:35.789Z,23.17
2023-10-23T03:51:04.648Z,25.55
2023-10-23T03:53:32.853Z,23.08
2023-10-23T03:56:01.035Z,26.10
2023-10-23T03:58:29.214Z,23.77
2023-10-23T04:00:58.780Z,27.52
2023-10-23T04:03:27.553Z,35.20
2023-10-23T04:05:55.793Z,39.17
2023-10-23T04:08:23.992Z,27.60
2023-10-23T04:10:52.237Z,35.55
2023-10-23T04:13:20.348Z,31.60
2023-10-23T04:15:56.284Z,37.88
2023-10-23T04:18:26.936Z,34.85
2023-10-23T04:21:04.849Z,36.33
2023-10-23T04:23:33.219Z,42.42
2023-10-23T04:26:01.708Z,37.22
2023-10-23T04:28:29.956Z,42.03
2023-10-23T04:30:58.294Z,41.45
2023-10-23T04:33:28.444Z,39.13
2023-10-23T04:35:58.065Z,36.75
2023-10-23T04:38:26.878Z,36.83
2023-10-23T04:40:55.268Z,41.35
2023-10-23T04:43:24.520Z,41.15
2023-10-23T04:45:54.294Z,43.10
2023-10-23T04:48:22.873Z,49.08
2023-10-23T04:50:52.328Z,52.67
2023-10-23T04:53:21.393Z,54.75
2023-10-23T04:55:49.562Z,55.28
2023-10-23T04:58:17.678Z,50.38
2023-10-23T05:00:46.460Z,57.47
2023-10-23T05:03:14.560Z,59.65
2023-10-23T05:05:49.934Z,55.17
2023-10-23T05:08:19.504Z,48.35
2023-10-23T05:10:47.993Z,60.50
2023-10-23T05:13:16.258Z,61.63
2023-10-23T05:15:44.469Z,59.78
2023-10-23T05:18:12.700Z,51.85
2023-10-23T05:20:40.881Z,58.80
2023-10-23T05:23:09.280Z,52.85
2023-10-23T05:25:39.066Z,53.50
2023-10-23T05:28:13.118Z,85.90
2023-10-23T05:30:41.471Z,66.30
2023-10-23T05:33:09.666Z,87.00
2023-10-23T05:35:43.900Z,67.93
2023-10-23T05:38:13.624Z,105.03
2023-10-23T05:40:46.022Z,108.07
2023-10-23T05:43:18.193Z,174.80
2023-10-23T05:45:46.637Z,172.07
2023-10-23T05:48:14.839Z,155.40
2023-10-23T05:50:42.835Z,197.63
2023-10-23T05:53:10.980Z,97.82
2023-10-23T05:55:39.059Z,118.88
2023-10-23T05:58:08.711Z,153.77
2023-10-23T06:00:36.950Z,119.00
2023-10-23T06:03:05.561Z,160.40
2023-10-23T06:05:33.894Z,213.25
2023-10-23T06:08:02.155Z,183.02
2023-10-23T06:10:30.592Z,128.20
2023-10-23T06:12:58.749Z,152.93
2023-10-23T06:15:28.441Z,161.15
2023-10-23T06:17:56.790Z,130.85
2023-10-23T06:20:24.892Z,131.77
2023-10-23T06:22:53.330Z,138.40
2023-10-23T06:25:21.721Z,149.63
2023-10-23T06:27:49.914Z,115.43
2023-10-23T06:30:18.375Z,177.02
2023-10-23T06:32:48.053Z,169.75
2023-10-23T06:35:19.700Z,130.38
2023-10-23T06:37:49.316Z,132.57
2023-10-23T06:40:17.649Z,145.68
2023-10-23T06:42:45.821Z,154.18
2023-10-23T06:45:21.484Z,184.93
2023-10-23T06:47:51.769Z,175.65
2023-10-23T06:50:20.107Z,200.25
2023-10-23T06:52:48.345Z,104.40
2023-10-23T06:55:19.040Z,187.10
2023-10-23T06:57:50.025Z,144.00
2023-10-23T07:00:21.112Z,149.00
2023-10-23T07:02:52.020Z,167.00
2023-10-23T07:05:20.221Z,132.88
2023-10-23T07:07:48.406Z,154.32
2023-10-23T07:10:19.193Z,192.25
2023-10-23T07:12:50.132Z,166.38
2023-10-23T07:15:18.431Z,179.98
2023-10-23T07:17:46.677Z,218.45
2023-10-23T07:20:18.514Z,248.05
2023-10-23T07:22:46.990Z,253.40
2023-10-23T07:25:15.867Z,281.55
2023-10-23T07:27:44.083Z,215.95
2023-10-23T07:30:15.022Z,253.40
2023-10-23T07:32:44.264Z,264.58
2023-10-23T07:35:12.675Z,216.27
2023-10-23T07:37:44.369Z,287.85
2023-10-23T07:40:13.881Z,269.05
2023-10-23T07:42:42.068Z,227.68
2023-10-23T07:45:11.667Z,210.15
2023-10-23T07:47:39.910Z,148.00
2023-10-23T07:50:09.238Z,132.98
2023-10-23T07:52:37.486Z,188.30
2023-10-23T07:55:09.750Z,166.07
2023-10-23T07:57:37.980Z,141.73
2023-10-23T08:00:09.924Z,146.48
2023-10-23T08:02:38.202Z,106.95
2023-10-23T08:05:07.255Z,92.45
2023-10-23T08:07:41.493Z,126.50
2023-10-23T08:10:11.883Z,104.20
2023-10-23T08:12:40.196Z,110.72
2023-10-23T08:15:10.300Z,114.07
2023-10-23T08:17:42.587Z,157.18
2023-10-23T08:20:12.444Z,177.82
2023-10-23T08:22:40.874Z,167.93
2023-10-23T08:25:10.948Z,202.60
2023-10-23T08:27:39.242Z,166.43
2023-10-23T08:30:09.610Z,216.77
2023-10-23T08:32:49.984Z,92.05
2023-10-23T08:35:21.459Z,95.80
2023-10-23T08:37:49.789Z,106.13
2023-10-23T08:40:24.491Z,145.15
2023-10-23T08:42:52.846Z,121.70
2023-10-23T08:45:21.308Z,126.25
2023-10-23T08:47:50.015Z,129.25
2023-10-23T08:50:19.661Z,143.90
2023-10-23T08:52:55.145Z,150.23
2023-10-23T08:55:28.591Z,122.78
2023-10-23T08:57:59.478Z,219.48
2023-10-23T09:00:27.759Z,129.07
2023-10-23T09:02:59.707Z,196.25
2023-10-23T09:05:28.149Z,157.10
2023-10-23T09:07:56.529Z,197.13
2023-10-23T09:10:27.515Z,141.75
2023-10-23T09:13:00.457Z,137.05
2023-10-23T09:15:31.660Z,134.73
2023-10-23T09:18:03.383Z,121.90
2023-10-23T09:20:31.762Z,99.97
2023-10-23T09:22:59.961Z,102.63
2023-10-23T09:25:29.619Z,88.22
2023-10-23T09:27:57.954Z,77.35
2023-10-23T09:30:26.431Z,80.40
2023-10-23T09:32:56.275Z,76.40
2023-10-23T09:35:26.856Z,79.07
2023-10-23T09:37:55.072Z,65.75
2023-10-23T09:40:24.956Z,68.57
2023-10-23T09:42:55.589Z,54.53
2023-10-23T09:45:24.921Z,56.33
2023-10-23T09:48:02.429Z,59.03
2023-10-23T09:50:32.670Z,54.22
2023-10-23T09:53:02.687Z,55.60
2023-10-23T09:55:32.909Z,53.05
2023-10-23T09:58:10.790Z,54.72
2023-10-23T10:00:40.341Z,51.35
2023-10-23T10:03:13.529Z,48.47
2023-10-23T10:05:54.082Z,51.22
2023-10-23T10:08:26.030Z,52.38
2023-10-23T10:11:00.882Z,50.13
2023-10-23T10:13:33.468Z,56.25
2023-10-23T10:16:02.401Z,42.83
2023-10-23T10:18:36.630Z,45.92
2023-10-23T10:21:11.840Z,44.38
2023-10-23T10:23:40.835Z,39.10
2023-10-23T10:26:10.102Z,38.08
2023-10-23T10:28:42.016Z,44.92
2023-10-23T10:31:10.555Z,38.67
2023-10-23T10:34:27.991Z,39.17
2023-10-23T10:36:46.018Z,34.75
2023-10-23T10:39:18.087Z,37.78
2023-10-23T10:41:46.877Z,36.53
2023-10-23T10:44:21.578Z,35.83
2023-10-23T10:46:55.356Z,31.80
2023-10-23T10:49:24.547Z,34.35
2023-10-23T10:51:53.606Z,35.40
2023-10-23T10:54:34.454Z,30.55
2023-10-23T10:57:02.839Z,29.25
2023-10-23T10:59:35.517Z,28.65
2023-10-23T11:02:03.689Z,27.02
2023-10-23T11:04:34.896Z,27.25
2023-10-23T11:07:04.092Z,29.23
2023-10-23T11:09:32.310Z,25.90
2023-10-23T11:12:00.946Z,23.75
2023-10-23T11:14:29.085Z,27.63
2023-10-23T11:16:58.695Z,25.25
2023-10-23T11:19:27.173Z,22.92
2023-10-23T11:22:08.776Z,28.10
2023-10-23T11:24:37.270Z,25.10
2023-10-23T11:27:06.931Z,26.00
2023-10-23T11:29:45.145Z,27.13
2023-10-23T11:32:15.413Z,20.95
2023-10-23T11:34:44.427Z,25.55
2023-10-23T11:37:15.814Z,23.58
2023-10-23T11:39:44.314Z,22.48
2023-10-23T11:42:12.972Z,21.08
2023-10-23T11:44:42.860Z,24.40
2023-10-23T11:47:11.328Z,27.50
2023-10-23T11:49:41.413Z,22.23
2023-10-23T11:52:09.625Z,17.98
2023-10-23T11:54:37.804Z,27.73
2023-10-23T11:57:08.191Z,25.70
2023-10-23T11:59:44.693Z,20.67
2023-10-23T12:02:13.077Z,27.02
2023-10-23T12:04:42.837Z,18.00
2023-10-23T12:07:11.264Z,19.23
2023-10-23T12:09:40.556Z,19.13
2023-10-23T12:12:12.707Z,25.65
2023-10-23T12:14:41.670Z,22.45
2023-10-23T12:17:09.846Z,23.98
2023-10-23T12:19:38.247Z,19.90
2023-10-23T12:22:08.381Z,22.25
2023-10-23T12:24:36.549Z,21.20
2023-10-23T12:27:06.120Z,20.92
2023-10-23T12:29:34.432Z,16.17
2023-10-23T12:32:05.739Z,18.35
2023-10-23T12:34:35.805Z,18.95
2023-10-23T12:37:09.342Z,18.42
2023-10-23T12:39:37.842Z,16.58
2023-10-23T12:42:06.656Z,14.98
2023-10-23T12:44:34.826Z,17.65
2023-10-23T12:47:06.258Z,15.75
2023-10-23T12:49:34.382Z,18.25
2023-10-23T12:52:02.664Z,20.13
2023-10-23T12:54:32.278Z,16.80
2023-10-23T12:57:00.303Z,15.20
2023-10-23T12:59:28.475Z,16.00
2023-10-23T13:01:56.705Z,20.17
2023-10-23T13:04:24.779Z,20.50
2023-10-23T13:06:54.356Z,21.02
2023-10-23T13:09:23.316Z,20.08
2023-10-23T13:11:53.522Z,22.40
2023-10-23T13:14:21.743Z,21.48
2023-10-23T13:16:50.027Z,23.13
2023-10-23T13:19:18.296Z,24.98
2023-10-23T13:21:46.367Z,25.08
2023-10-23T13:24:18.979Z,23.25
2023-10-23T13:26:47.217Z,27.08
2023-10-23T13:29:16.925Z,29.77
2023-10-23T13:31:49.443Z,27.38
2023-10-23T13:34:20.755Z,30.65
2023-10-23T13:36:49.011Z,29.48
2023-10-23T13:39:17.618Z,30.30
2023-10-23T13:41:45.878Z,36.05
2023-10-23T13:44:13.956Z,35.70
2023-10-23T13:46:46.432Z,44.88
2023-10-23T13:49:14.928Z,36.22
2023-10-23T13:51:43.094Z,32.38
2023-10-23T13:54:11.590Z,34.30
2023-10-23T13:56:39.746Z,39.35
2023-10-23T13:59:10.874Z,35.95
2023-10-23T14:01:39.404Z,31.85
2023-10-23T14:04:09.247Z,36.30
2023-10-23T14:06:37.642Z,36.88
2023-10-23T14:09:40.944Z,46.15
2023-10-23T14:12:01.433Z,38.47
2023-10-23T14:14:32.714Z,38.83
2023-10-23T14:17:02.236Z,44.03
2023-10-23T14:19:45.762Z,47.00
2023-10-23T14:22:16.137Z,41.80
2023-10-23T14:24:44.437Z,45.03
2023-10-23T14:27:18.694Z,48.60
2023-10-23T14:29:47.057Z,44.75
2023-10-23T14:32:15.137Z,40.50
2023-10-23T14:35:40.043Z,43.78
2023-10-23T14:38:08.735Z,42.10
2023-10-23T14:40:36.830Z,45.72
2023-10-23T14:43:08.056Z,37.20
2023-10-23T14:45:39.444Z,46.90
2023-10-23T14:48:08.159Z,41.45
2023-10-23T14:50:39.750Z,39.50
2023-10-23T14:53:08.311Z,40.33
2023-10-23T14:55:39.627Z,43.25
2023-10-23T14:58:07.852Z,43.60
2023-10-23T15:00:35.984Z,46.25
2023-10-23T15:03:04.680Z,41.65
2023-10-23T15:05:40.170Z,45.25
2023-10-23T15:08:09.752Z,50.75
2023-10-23T15:10:41.068Z,47.63
2023-10-23T15:13:09.542Z,49.75
2023-10-23T15:15:37.877Z,47.63
2023-10-23T15:18:06.270Z,50.28
2023-10-23T15:20:34.541Z,40.40
2023-10-23T15:23:03.477Z,52.00
2023-10-23T15:25:33.335Z,43.00
2023-10-23T15:28:05.599Z,48.85
2023-10-23T15:30:34.467Z,51.05
2023-10-23T15:33:03.056Z,47.65
2023-10-23T15:35:31.321Z,48.92
2023-10-23T15:38:00.983Z,49.67
2023-10-23T15:40:33.634Z,54.20
2023-10-23T15:43:03.184Z,57.15
2023-10-23T15:45:38.663Z,48.42
2023-10-23T15:50:42.611Z,48.83
2023-10-23T15:53:10.777Z,52.83
2023-10-23T15:55:39.180Z,47.90
2023-10-23T15:58:08.774Z,50.53
2023-10-23T16:00:37.242Z,55.63
2023-10-23T16:03:05.897Z,56.75
2023-10-23T16:05:34.482Z,52.03
2023-10-23T16:08:02.610Z,57.90
2023-10-23T16:10:34.399Z,51.38
2023-10-23T16:13:04.317Z,51.17
2023-10-23T16:15:34.220Z,48.70
2023-10-23T16:18:05.668Z,49.05
2023-10-23T16:20:34.503Z,52.88
2023-10-23T16:23:02.827Z,55.53
2023-10-23T16:25:31.004Z,51.58
2023-10-23T16:28:00.006Z,50.17
2023-10-23T16:30:28.737Z,54.30
2023-10-23T16:32:58.201Z,51.15
2023-10-23T16:35:26.931Z,57.35
2023-10-23T16:37:55.163Z,54.72
2023-10-23T16:40:24.147Z,52.65
2023-10-23T16:42:52.495Z,52.17
2023-10-23T16:45:20.953Z,52.08
2023-10-23T16:47:49.340Z,63.83
2023-10-23T16:50:19.131Z,62.03
2023-10-23T16:52:48.461Z,59.20
2023-10-23T16:55:18.106Z,58.63
2023-10-23T16:57:46.342Z,59.13
2023-10-23T17:00:17.594Z,60.85
2023-10-23T17:02:46.026Z,57.85
2023-10-23T17:05:15.461Z,60.28
2023-10-23T17:07:48.289Z,60.67
2023-10-23T17:10:18.430Z,58.83
2023-10-23T17:12:46.873Z,67.55
2023-10-23T17:15:15.865Z,59.45
2023-10-23T17:17:44.388Z,63.88
2023-10-23T17:20:13.743Z,63.38
2023-10-23T17:22:44.370Z,63.08
2023-10-23T17:25:14.162Z,64.18
2023-10-23T17:27:42.412Z,66.00
2023-10-23T17:30:12.760Z,66.85
2023-10-23T17:32:40.935Z,57.70
2023-10-23T17:35:12.450Z,60.72
2023-10-23T17:37:40.747Z,61.25
2023-10-23T17:40:12.146Z,61.00
2023-10-23T17:42:41.846Z,60.90
2023-10-23T17:45:11.788Z,63.10
2023-10-23T17:47:41.251Z,59.20
2023-10-23T17:50:09.896Z,68.10
2023-10-23T17:52:38.439Z,62.03
2023-10-23T17:55:11.109Z,58.65
2023-10-23T17:57:39.253Z,65.85
2023-10-23T18:00:11.645Z,67.03
2023-10-23T18:02:41.066Z,67.05
2023-10-23T18:05:10.395Z,67.38
2023-10-23T18:07:38.787Z,74.70
2023-10-23T18:10:08.270Z,64.70
2023-10-23T18:12:39.394Z,63.72
2023-10-23T18:15:10.301Z,62.90
2023-10-23T18:17:41.356Z,64.15
2023-10-23T18:20:11.344Z,63.53
2023-10-23T18:22:39.437Z,69.07
2023-10-23T18:25:09.212Z,71.93
2023-10-23T18:27:37.821Z,68.45
2023-10-23T18:30:09.253Z,69.25
2023-10-23T18:32:37.381Z,65.90
2023-10-23T18:35:08.386Z,69.15
2023-10-23T18:37:37.037Z,64.28
2023-10-23T18:40:06.297Z,69.90
2023-10-23T18:42:35.659Z,66.60
2023-10-23T18:45:06.487Z,67.28
2023-10-23T18:47:36.701Z,68.78
2023-10-23T18:50:06.145Z,75.65
2023-10-23T18:52:35.673Z,74.68
2023-10-23T18:55:04.726Z,71.60
2023-10-23T18:57:32.973Z,73.57
2023-10-23T19:00:01.607Z,71.72
2023-10-23T19:02:29.942Z,75.43
2023-10-23T19:04:59.507Z,75.57
2023-10-23T19:07:27.703Z,69.68
2023-10-23T19:09:59.127Z,76.07
2023-10-23T19:12:27.319Z,69.35
2023-10-23T19:14:55.565Z,73.68
2023-10-23T19:17:39.058Z,72.90
2023-10-23T19:20:11.472Z,76.53
2023-10-23T19:22:41.033Z,79.40
2023-10-23T19:25:10.760Z,76.70
2023-10-23T19:27:38.888Z,79.72
2023-10-23T19:30:13.236Z,76.82
2023-10-23T19:32:43.023Z,79.90
2023-10-23T19:35:16.376Z,79.93
2023-10-23T19:37:45.478Z,74.65
2023-10-23T19:40:16.057Z,79.25
2023-10-23T19:42:44.644Z,81.60
2023-10-23T19:45:14.133Z,75.43
2023-10-23T19:47:43.153Z,78.72
2023-10-23T19:50:14.803Z,71.45
2023-10-23T19:52:45.154Z,79.82
2023-10-23T19:55:43.474Z,84.57
2023-10-23T19:58:05.895Z,77.13
2023-10-23T20:00:34.501Z,75.18
2023-10-23T20:03:03.175Z,77.25
2023-10-23T20:05:33.216Z,81.38
2023-10-23T20:08:02.548Z,82.85
2023-10-23T20:10:31.024Z,78.13
2023-10-23T20:13:00.226Z,77.90
2023-10-23T20:15:30.420Z,81.63
2023-10-23T20:17:58.819Z,79.60
2023-10-23T20:20:27.759Z,80.80
2023-10-23T20:22:57.436Z,82.05
2023-10-23T20:25:25.878Z,81.88
2023-10-23T20:27:54.109Z,76.60
2023-10-23T20:30:22.457Z,79.10
2023-10-23T20:32:50.997Z,88.03
2023-10-23T20:35:19.841Z,88.50
2023-10-23T20:37:48.009Z,86.63
2023-10-23T20:40:17.747Z,81.90
2023-10-23T20:42:46.275Z,81.28
2023-10-23T20:45:14.860Z,85.60
2023-10-23T20:47:43.339Z,80.07
2023-10-23T20:50:12.486Z,82.80
2023-10-23T20:52:40.665Z,87.30
2023-10-23T20:55:09.833Z,82.75
2023-10-23T20:57:39.655Z,85.35
2023-10-23T21:00:09.634Z,88.35
2023-10-23T21:02:38.349Z,83.38
2023-10-23T21:05:08.029Z,84.32
2023-10-23T21:07:37.381Z,79.75
2023-10-23T21:10:07.374Z,76.70
2023-10-23T21:12:36.312Z,87.47
2023-10-23T21:15:06.828Z,83.38
2023-10-23T21:17:35.047Z,79.97
2023-10-23T21:20:03.352Z,80.88
2023-10-23T21:22:31.945Z,92.65
2023-10-23T21:25:00.184Z,87.60
2023-10-23T21:27:28.481Z,81.85
2023-10-23T21:29:56.607Z,84.78
2023-10-23T21:32:26.115Z,80.50
2023-10-23T21:34:54.605Z,84.10
2023-10-23T21:37:22.964Z,78.68
2023-10-23T21:39:51.277Z,78.43
2023-10-23T21:42:19.419Z,74.15
2023-10-23T21:44:47.517Z,83.53
2023-10-23T21:47:15.843Z,76.82
2023-10-23T21:49:45.494Z,80.55
2023-10-23T21:52:14.552Z,80.72
2023-10-23T21:54:43.476Z,73.63
2023-10-23T21:57:21.234Z,65.78
2023-10-23T21:59:52.751Z,69.32
2023-10-23T22:02:21.736Z,73.10
2023-10-23T22:04:52.447Z,73.13
2023-10-23T22:07:21.592Z,67.03
2023-10-23T22:09:50.734Z,66.95
2023-10-23T22:12:19.544Z,65.18
2023-10-23T22:14:48.457Z,67.25
2023-10-23T22:17:16.711Z,66.63
2023-10-23T22:19:45.099Z,66.20
2023-10-23T22:22:14.616Z,64.82
2023-10-23T22:24:42.708Z,67.65
2023-10-23T22:27:12.895Z,65.88
2023-10-23T22:29:41.168Z,62.85
2023-10-23T22:32:09.278Z,65.95
2023-10-23T22:34:37.644Z,65.45
2023-10-23T22:37:55.856Z,60.65
2023-10-23T22:39:55.622Z,59.20
2023-10-23T22:42:23.976Z,59.55
2023-10-23T22:44:52.106Z,61.20
2023-10-23T22:47:20.419Z,62.60
2023-10-23T22:49:50.044Z,63.53
2023-10-23T22:52:19.371Z,61.25
2023-10-23T22:54:48.310Z,59.90
2023-10-23T22:57:20.392Z,61.20
2023-10-23T22:59:49.513Z,68.70
2023-10-23T23:02:18.764Z,59.90
2023-10-23T23:04:48.044Z,62.50
2023-10-23T23:07:17.511Z,60.85
2023-10-23T23:09:46.436Z,58.85
2023-10-23T23:12:17.705Z,63.50
2023-10-23T23:14:46.552Z,56.58
2023-10-23T23:17:18.562Z,54.35
2023-10-23T23:19:51.801Z,53.83
2023-10-23T23:22:20.563Z,53.28
2023-10-23T23:24:48.759Z,57.10
2023-10-23T23:27:18.598Z,57.92
2023-10-23T23:29:46.756Z,47.90
2023-10-23T23:32:14.971Z,47.85
2023-10-23T23:34:43.514Z,50.92
2023-10-23T23:37:11.883Z,48.03
2023-10-23T23:39:40.016Z,44.20
2023-10-23T23:42:08.393Z,47.88
2023-10-23T23:44:38.066Z,50.63
2023-10-23T23:47:06.356Z,45.00
2023-10-23T23:49:34.746Z,43.15
2023-10-23T23:52:03.093Z,41.58
2023-10-23T23:54:31.431Z,45.67
2023-10-23T23:56:59.824Z,45.25
2023-10-23T23:59:28.133Z,41.83
